Time;durP1;ratioP1;P1;durP2;ratioP2;P2;SDS_P1;SDS_P2;PMS_P1;PMS_P2;Temp;Humidity;BMP_temperature;BMP_pressure;BME280_temperature;BME280_humidity;BME280_pressure;Samples;Min_cycle;Max_cycle;Signal;HPM_P1;HPM_P2
2023/08/19 00:01:05;;;;;;;11.93;10.73;;;;;;;27.75;57.28;101041.31;5041476;28;20383;-57
2023/08/19 00:03:34;;;;;;;10.50;9.60;;;;;;;27.75;57.30;101039.47;5045741;28;20045;-55
2023/08/19 00:06:10;;;;;;;10.10;9.20;;;;;;;27.76;57.19;101043.88;5035659;28;20045;-55
2023/08/19 00:08:37;;;;;;;10.88;9.77;;;;;;;27.77;57.12;101044.72;5036124;28;20050;-56
2023/08/19 00:11:05;;;;;;;10.43;9.52;;;;;;;27.77;57.32;101034.69;5036187;28;20384;-55
2023/08/19 00:13:32;;;;;;;12.10;11.00;;;;;;;27.76;57.20;101035.72;5036108;28;20045;-55
2023/08/19 00:16:00;;;;;;;10.25;9.35;;;;;;;27.77;57.05;101039.28;5040893;28;20045;-54
2023/08/19 00:18:27;;;;;;;11.65;10.48;;;;;;;27.76;57.15;101038.44;5035738;28;20045;-57
2023/08/19 00:20:55;;;;;;;11.15;10.00;;;;;;;27.78;57.08;101035.53;5035069;28;20049;-57
2023/08/19 00:23:25;;;;;;;10.95;9.98;;;;;;;27.79;56.93;101039.94;5034781;28;20052;-57
2023/08/19 00:25:53;;;;;;;10.85;9.90;;;;;;;27.79;57.14;101034.50;5035196;28;20052;-57
2023/08/19 00:28:20;;;;;;;11.35;10.20;;;;;;;27.78;57.08;101040.97;5033993;28;20041;-57
2023/08/19 00:30:49;;;;;;;10.48;9.48;;;;;;;27.80;57.30;101044.38;5034311;28;20057;-57
2023/08/19 00:33:16;;;;;;;11.07;10.05;;;;;;;27.81;57.51;101046.06;5034190;28;20053;-57
2023/08/19 00:35:44;;;;;;;11.38;10.38;;;;;;;27.81;57.10;101046.06;5033603;28;20064;-57
2023/08/19 00:38:11;;;;;;;11.75;10.75;;;;;;;27.81;57.17;101041.44;5033782;28;20045;-55
2023/08/19 00:40:39;;;;;;;11.50;10.30;;;;;;;27.82;57.42;101043.13;5034932;28;20056;-55
2023/08/19 00:43:07;;;;;;;11.65;10.65;;;;;;;27.81;57.59;101046.91;5044914;28;20045;-55
2023/08/19 00:45:42;;;;;;;10.52;9.60;;;;;;;27.83;57.30;101047.56;5038979;28;20078;-55
2023/08/19 00:48:11;;;;;;;11.27;10.27;;;;;;;27.82;57.23;101047.72;5048640;28;20052;-55
2023/08/19 00:50:39;;;;;;;11.70;10.57;;;;;;;27.83;57.29;101052.13;5033793;28;20407;-55
2023/08/19 00:53:08;;;;;;;10.20;9.30;;;;;;;27.84;57.40;101045.69;5046059;28;20045;-56
2023/08/19 00:55:36;;;;;;;11.68;10.68;;;;;;;27.83;57.31;101044.84;5050333;28;20048;-56
2023/08/19 00:58:04;;;;;;;10.88;9.75;;;;;;;27.85;57.34;101041.94;5038194;28;20052;-55
2023/08/19 01:00:32;;;;;;;10.20;9.40;;;;;;;27.85;57.66;101041.94;5044789;28;20073;-55
2023/08/19 01:03:00;;;;;;;10.18;9.27;;;;;;;27.85;57.66;101044.66;5047013;28;20037;-55
2023/08/19 01:05:43;;;;;;;11.40;10.35;;;;;;;27.85;57.43;101040.06;5038662;28;20045;-55
2023/08/19 01:08:17;;;;;;;11.50;10.50;;;;;;;27.85;57.69;101031.06;5045909;28;20068;-57
2023/08/19 01:11:09;;;;;;;10.88;9.88;;;;;;;27.85;57.81;101033.78;5046101;28;20049;-57
2023/08/19 01:14:12;;;;;;;11.10;10.00;;;;;;;27.87;57.52;101048.03;5038461;28;20053;-57
2023/08/19 01:16:43;;;;;;;10.70;9.77;;;;;;;27.87;57.43;101044.47;5044676;28;20060;-57
2023/08/19 01:19:22;;;;;;;11.52;10.52;;;;;;;27.87;57.26;101039.88;5049674;28;20072;-57
2023/08/19 01:21:56;;;;;;;10.98;9.98;;;;;;;27.87;57.37;101034.41;5038809;28;20045;-57
2023/08/19 01:24:27;;;;;;;10.75;9.75;;;;;;;27.87;57.47;101039.03;5034331;28;20052;-57
2023/08/19 01:26:54;;;;;;;10.32;9.43;;;;;;;27.87;57.47;101042.59;5034628;28;20064;-57
2023/08/19 01:29:22;;;;;;;10.63;9.75;;;;;;;27.88;57.35;101047.03;5049706;28;20052;-55
2023/08/19 01:31:50;;;;;;;10.40;9.50;;;;;;;27.87;57.35;101048.03;5038467;28;20050;-55
2023/08/19 01:34:18;;;;;;;11.35;10.05;;;;;;;27.87;57.31;101045.31;5044874;28;20048;-55
2023/08/19 01:36:53;;;;;;;10.05;9.15;;;;;;;27.88;57.31;101049.75;5038162;28;20083;-55
2023/08/19 01:39:23;;;;;;;10.55;9.60;;;;;;;27.88;57.41;101049.75;5037016;28;20053;-57
2023/08/19 01:41:51;;;;;;;10.25;9.27;;;;;;;27.88;57.68;101044.28;5043986;28;20491;-57
2023/08/19 01:44:20;;;;;;;11.30;10.30;;;;;;;27.88;57.71;101044.28;5044814;28;20059;-57
2023/08/19 01:46:48;;;;;;;10.93;9.93;;;;;;;27.88;57.40;101041.56;5037079;28;20053;-57
2023/08/19 01:49:15;;;;;;;10.40;9.40;;;;;;;27.90;57.51;101044.09;5049036;28;20049;-54
2023/08/19 01:51:42;;;;;;;10.20;9.30;;;;;;;27.89;57.62;101047.84;5042636;28;20052;-55
2023/08/19 01:54:10;;;;;;;11.13;10.05;;;;;;;27.90;57.71;101041.38;5040275;28;20053;-55
2023/08/19 01:56:37;;;;;;;10.50;9.60;;;;;;;27.90;57.41;101050.38;5049369;28;20053;-55
2023/08/19 01:59:05;;;;;;;10.70;9.80;;;;;;;27.90;57.41;101053.09;5037587;28;20052;-57
2023/08/19 02:01:32;;;;;;;10.23;9.23;;;;;;;27.90;57.61;101063.16;5043567;28;20057;-57
2023/08/19 02:03:59;;;;;;;10.45;9.43;;;;;;;27.91;57.43;101070.28;5045005;28;20056;-57
2023/08/19 02:06:29;;;;;;;9.80;8.95;;;;;;;27.91;57.42;101071.13;5037999;28;20053;-57
2023/08/19 02:08:56;;;;;;;9.90;8.95;;;;;;;27.91;57.61;101064.84;5047082;28;20060;-55
2023/08/19 02:11:23;;;;;;;10.15;9.25;;;;;;;27.91;57.72;101076.56;5042699;28;20052;-55
2023/08/19 02:13:52;;;;;;;10.38;9.45;;;;;;;27.92;57.37;101066.56;5039746;28;20067;-55
2023/08/19 02:16:19;;;;;;;11.05;10.00;;;;;;;27.92;57.37;101066.56;5048983;28;20053;-55
2023/08/19 02:18:47;;;;;;;10.85;9.80;;;;;;;27.91;57.29;101057.50;5038766;28;20049;-55
2023/08/19 02:21:15;;;;;;;10.20;9.20;;;;;;;27.92;57.58;101069.28;5042677;28;20053;-55
2023/08/19 02:23:42;;;;;;;10.05;9.25;;;;;;;27.91;57.58;101054.78;5034925;28;20064;-56
2023/08/19 02:26:11;;;;;;;10.55;9.65;;;;;;;27.92;57.32;101058.38;5032530;28;20045;-55
2023/08/19 02:28:38;;;;;;;9.93;9.02;;;;;;;27.92;57.45;101055.66;5050330;28;20052;-57
2023/08/19 02:31:06;;;;;;;10.57;9.68;;;;;;;27.91;57.32;101057.50;5046692;28;20048;-57
2023/08/19 02:33:33;;;;;;;10.68;9.77;;;;;;;27.92;57.37;101061.94;5044389;28;20052;-57
2023/08/19 02:36:01;;;;;;;10.77;9.77;;;;;;;27.92;57.37;101064.66;5035853;28;20061;-57
2023/08/19 02:38:28;;;;;;;10.45;9.52;;;;;;;27.92;57.63;101066.56;5042435;28;20045;-55
2023/08/19 02:40:57;;;;;;;10.05;9.15;;;;;;;27.92;57.63;101063.81;5048211;28;20057;-55
2023/08/19 02:43:25;;;;;;;10.63;9.30;;;;;;;27.92;57.55;101063.81;5049989;28;20399;-55
2023/08/19 02:45:53;;;;;;;10.20;9.23;;;;;;;27.92;57.66;101061.94;5041286;28;20049;-55
2023/08/19 02:48:20;;;;;;;11.00;10.02;;;;;;;27.92;57.69;101059.22;5051948;28;20041;-56
2023/08/19 02:50:51;;;;;;;10.98;9.52;;;;;;;27.93;57.32;101049.19;5046725;28;20045;-55
2023/08/19 02:53:19;;;;;;;10.48;9.55;;;;;;;27.93;57.67;101055.47;5040189;28;20052;-55
2023/08/19 02:55:46;;;;;;;9.90;9.07;;;;;;;27.93;57.56;101044.59;5051191;28;20400;-56
2023/08/19 02:58:13;;;;;;;9.00;8.20;;;;;;;27.94;57.48;101049.00;5041182;28;20045;-56
2023/08/19 03:00:41;;;;;;;10.57;9.57;;;;;;;27.95;57.77;101047.94;5046950;28;20054;-56
2023/08/19 03:03:08;;;;;;;10.15;9.20;;;;;;;27.95;57.53;101053.41;5043409;28;20488;-56
2023/08/19 03:05:37;;;;;;;11.20;10.20;;;;;;;27.95;57.89;101064.28;5035242;28;20051;-56
2023/08/19 03:08:06;;;;;;;10.68;9.68;;;;;;;27.95;57.91;101058.84;5040820;28;20045;-57
2023/08/19 03:10:38;;;;;;;10.63;9.65;;;;;;;27.95;57.66;101055.28;5045665;28;20057;-57
2023/08/19 03:13:06;;;;;;;10.32;9.32;;;;;;;27.96;57.81;101065.16;5037415;28;20052;-57
2023/08/19 03:15:36;;;;;;;10.15;9.25;;;;;;;27.95;57.91;101055.28;5052008;28;20061;-57
2023/08/19 03:18:04;;;;;;;10.65;9.27;;;;;;;27.96;57.81;101062.44;5043026;28;20568;-57
2023/08/19 03:20:32;;;;;;;10.25;9.25;;;;;;;27.95;57.44;101053.41;5045738;28;20050;-57
2023/08/19 03:23:00;;;;;;;10.50;9.50;;;;;;;27.95;57.74;101047.94;5049922;28;20052;-57
2023/08/19 03:25:27;;;;;;;10.75;9.85;;;;;;;27.95;57.45;101053.41;5036530;28;20045;-57
2023/08/19 03:27:54;;;;;;;10.07;9.18;;;;;;;27.95;57.46;101053.41;5041824;28;20057;-57
2023/08/19 03:30:22;;;;;;;10.48;9.57;;;;;;;27.95;57.46;101050.69;5046861;28;20056;-57
2023/08/19 03:32:50;;;;;;;10.05;9.07;;;;;;;27.96;57.52;101048.81;5049221;28;20060;-57
2023/08/19 03:35:17;;;;;;;9.75;8.93;;;;;;;27.97;57.76;101050.50;5050272;28;20048;-56
2023/08/19 03:37:45;;;;;;;9.57;8.68;;;;;;;27.96;57.43;101049.66;5036910;28;20464;-61
2023/08/19 03:40:12;;;;;;;10.45;9.45;;;;;;;27.96;57.65;101046.94;5037167;28;20053;-61
2023/08/19 03:42:40;;;;;;;9.85;8.95;;;;;;;27.96;57.90;101048.81;5040874;28;20431;-61
2023/08/19 03:45:07;;;;;;;9.90;9.00;;;;;;;27.95;57.86;101047.94;5036553;28;20053;-62
2023/08/19 03:47:35;;;;;;;10.20;9.30;;;;;;;27.95;57.82;101053.41;5035098;28;20057;-61
2023/08/19 03:50:05;;;;;;;10.35;9.45;;;;;;;27.96;57.68;101051.53;5035346;28;20049;-61
2023/08/19 03:52:32;;;;;;;10.35;9.45;;;;;;;27.95;57.35;101053.41;5034945;28;20116;-62
2023/08/19 03:55:00;;;;;;;10.82;9.98;;;;;;;27.95;57.63;101052.56;5036085;28;20056;-61
2023/08/19 03:57:27;;;;;;;11.07;10.07;;;;;;;27.93;57.32;101046.47;5047820;28;20051;-62
2023/08/19 03:59:55;;;;;;;11.60;10.40;;;;;;;27.93;57.25;101051.91;5043391;28;20120;-62
2023/08/19 04:02:23;;;;;;;11.65;10.55;;;;;;;27.92;57.22;101061.09;5034896;28;20061;-61
2023/08/19 04:05:02;;;;;;;10.68;9.68;;;;;;;27.92;57.64;101061.94;5036330;28;20061;-62
2023/08/19 04:07:32;;;;;;;12.13;10.95;;;;;;;27.91;57.63;101059.38;5036263;28;20060;-62
2023/08/19 04:10:01;;;;;;;11.55;10.45;;;;;;;27.90;57.39;101058.53;5042746;28;20044;-62
2023/08/19 04:12:28;;;;;;;11.50;10.45;;;;;;;27.89;57.36;101053.31;5051235;28;20056;-62
2023/08/19 04:14:56;;;;;;;10.52;9.52;;;;;;;27.89;57.31;101061.47;5039406;28;20048;-62
2023/08/19 04:17:25;;;;;;;12.63;11.45;;;;;;;27.90;57.45;101069.44;5044570;28;20054;-60
2023/08/19 04:19:52;;;;;;;10.93;9.93;;;;;;;27.91;57.36;101070.28;5048160;28;20037;-60
2023/08/19 04:22:20;;;;;;;11.95;10.93;;;;;;;27.88;57.54;101076.94;5039827;28;20049;-60
2023/08/19 04:24:52;;;;;;;10.65;9.75;;;;;;;27.88;57.35;101078.81;5047499;28;20049;-60
2023/08/19 04:27:21;;;;;;;13.00;11.63;;;;;;;27.84;57.43;101084.63;5035673;28;20061;-62
2023/08/19 04:29:50;;;;;;;13.32;11.98;;;;;;;27.79;57.12;101088.91;5036036;28;20067;-61
2023/08/19 04:32:18;;;;;;;13.00;11.70;;;;;;;27.71;57.48;101086.22;5049513;28;20049;-62
2023/08/19 04:34:46;;;;;;;14.18;12.70;;;;;;;27.67;57.58;101087.59;5033795;28;20053;-61
2023/08/19 04:37:14;;;;;;;11.10;10.00;;;;;;;27.67;57.54;101098.47;5046150;28;20049;-61
2023/08/19 04:39:42;;;;;;;12.55;11.27;;;;;;;27.68;57.62;101097.47;5033993;28;20060;-62
2023/08/19 04:42:20;;;;;;;13.45;11.55;;;;;;;27.69;57.41;101091.00;5034319;28;20061;-62
2023/08/19 04:44:47;;;;;;;12.57;11.38;;;;;;;27.71;57.51;101092.53;5046478;28;20049;-62
2023/08/19 04:47:16;;;;;;;11.73;10.63;;;;;;;27.72;57.80;101094.22;5041838;28;20049;-61
2023/08/19 04:49:44;;;;;;;11.82;10.70;;;;;;;27.73;57.49;101090.47;5033680;28;20056;-61
2023/08/19 04:52:11;;;;;;;12.38;11.18;;;;;;;27.75;57.48;101099.31;5034859;28;20399;-62
2023/08/19 04:54:39;;;;;;;11.63;10.52;;;;;;;27.76;57.79;101092.00;5039460;28;20049;-61
2023/08/19 04:57:07;;;;;;;12.43;11.32;;;;;;;27.76;57.67;101102.88;5034971;28;20049;-60
2023/08/19 04:59:34;;;;;;;12.52;11.32;;;;;;;27.76;57.87;101103.72;5035357;28;20049;-60
2023/08/19 05:02:02;;;;;;;12.35;10.60;;;;;;;27.75;57.48;101098.44;5040919;28;20049;-60
2023/08/19 05:04:29;;;;;;;14.30;11.32;;;;;;;27.75;57.61;101112.94;5034105;28;20045;-60
2023/08/19 05:06:57;;;;;;;12.80;11.70;;;;;;;27.74;57.27;101113.94;5045444;28;20534;-60
2023/08/19 05:09:25;;;;;;;12.95;11.73;;;;;;;27.73;57.25;101112.25;5037548;28;20049;-61
2023/08/19 05:11:52;;;;;;;13.50;12.23;;;;;;;27.72;57.17;101117.84;5035378;28;20056;-62
2023/08/19 05:14:20;;;;;;;13.77;12.38;;;;;;;27.69;57.34;101116.31;5033056;28;20045;-62
2023/08/19 05:16:47;;;;;;;13.65;12.00;;;;;;;27.65;57.39;101123.16;5035121;28;20037;-62
2023/08/19 05:19:20;;;;;;;14.23;12.85;;;;;;;27.61;57.91;101117.22;5033238;28;20391;-60
2023/08/19 05:21:48;;;;;;;15.00;13.45;;;;;;;27.55;58.07;101120.69;5045544;28;20053;-60
2023/08/19 05:24:16;;;;;;;16.17;14.57;;;;;;;27.42;58.47;101116.81;5034681;28;20045;-60
2023/08/19 05:26:44;;;;;;;15.88;14.02;;;;;;;27.36;58.44;101118.41;5039615;28;20037;-60
2023/08/19 05:29:12;;;;;;;13.98;12.68;;;;;;;27.34;58.26;101120.44;5034548;28;20061;-60
2023/08/19 05:31:41;;;;;;;13.70;12.40;;;;;;;27.34;58.07;101126.72;5047218;28;20053;-60
2023/08/19 05:34:09;;;;;;;12.90;11.70;;;;;;;27.36;57.80;101126.56;5044703;28;20060;-60
2023/08/19 05:36:37;;;;;;;13.02;11.77;;;;;;;27.38;57.85;101127.22;5044733;28;20052;-60
2023/08/19 05:39:04;;;;;;;13.23;11.88;;;;;;;27.41;57.54;101123.28;5038039;28;20042;-60
2023/08/19 05:41:31;;;;;;;12.50;11.32;;;;;;;27.41;57.32;101121.41;5048279;28;20043;-60
2023/08/19 05:43:59;;;;;;;12.05;10.95;;;;;;;27.43;57.58;101122.09;5042931;28;20045;-60
2023/08/19 05:46:26;;;;;;;12.07;10.88;;;;;;;27.46;57.43;101129.03;5040161;28;20407;-60
2023/08/19 05:48:54;;;;;;;12.57;11.38;;;;;;;27.48;57.08;101127.84;5049213;28;20056;-60
2023/08/19 05:51:21;;;;;;;13.05;11.80;;;;;;;27.49;57.00;101129.53;5038972;28;20072;-60
2023/08/19 05:53:48;;;;;;;13.13;11.75;;;;;;;27.50;57.04;101130.38;5042814;28;20045;-60
2023/08/19 05:56:16;;;;;;;11.23;10.23;;;;;;;27.49;57.33;101134.97;5045877;28;20059;-60
2023/08/19 05:58:43;;;;;;;11.40;10.38;;;;;;;27.53;57.30;101140.91;5037346;28;20045;-62
2023/08/19 06:01:11;;;;;;;11.90;10.88;;;;;;;27.52;57.22;101134.63;5047864;28;20045;-61
2023/08/19 06:03:38;;;;;;;11.02;9.95;;;;;;;27.51;57.07;101138.38;5041527;28;20045;-61
2023/08/19 06:06:07;;;;;;;11.50;10.40;;;;;;;27.50;56.96;101142.09;5045762;28;20041;-61
2023/08/19 06:08:34;;;;;;;12.52;10.32;;;;;;;27.52;57.21;101139.22;5037650;28;20053;-60
2023/08/19 06:11:06;;;;;;;11.60;10.38;;;;;;;27.53;56.86;101139.03;5048183;28;20045;-60
2023/08/19 06:13:34;;;;;;;12.55;11.45;;;;;;;27.54;57.12;101142.59;5041618;28;20056;-60
2023/08/19 06:16:03;;;;;;;13.52;12.23;;;;;;;27.48;57.39;101137.88;5040154;28;20045;-60
2023/08/19 06:18:32;;;;;;;14.25;12.75;;;;;;;27.45;57.61;101147.22;5048718;28;20041;-61
2023/08/19 06:21:00;;;;;;;14.98;13.43;;;;;;;27.33;58.17;101140.50;5038703;28;20108;-62
2023/08/19 06:23:27;;;;;;;17.08;15.32;;;;;;;27.21;58.85;101140.03;5043281;28;20058;-61
2023/08/19 06:25:55;;;;;;;16.60;14.88;;;;;;;27.16;58.90;101138.88;5047092;28;20045;-61
2023/08/19 06:28:22;;;;;;;17.05;15.25;;;;;;;27.09;59.22;101135.97;5037140;28;20514;-60
2023/08/19 06:30:50;;;;;;;15.55;14.02;;;;;;;27.09;59.71;101133.25;5039483;28;20041;-60
2023/08/19 06:33:18;;;;;;;13.57;12.27;;;;;;;27.16;59.33;101137.00;5043554;28;20045;-60
2023/08/19 06:35:48;;;;;;;12.95;11.75;;;;;;;27.25;59.17;101137.81;5046672;28;20052;-60
2023/08/19 06:38:19;;;;;;;13.10;11.93;;;;;;;27.30;58.89;101136.25;5037851;28;20053;-62
2023/08/19 06:41:09;;;;;;;12.05;10.85;;;;;;;27.39;58.75;101133.50;5045705;28;20045;-61
2023/08/19 06:43:38;;;;;;;15.50;14.00;;;;;;;27.38;58.84;101132.66;5033990;28;20407;-62
2023/08/19 06:46:07;;;;;;;17.35;15.65;;;;;;;27.26;59.27;101142.22;5048752;28;20048;-62
2023/08/19 06:48:35;;;;;;;19.02;16.33;;;;;;;27.18;59.75;101139.53;5039489;28;20577;-62
2023/08/19 06:51:03;;;;;;;16.85;15.23;;;;;;;27.11;60.08;101142.97;5048527;28;20037;-62
2023/08/19 06:53:31;;;;;;;19.05;16.55;;;;;;;27.08;60.06;101137.00;5039425;28;20072;-62
2023/08/19 06:56:24;;;;;;;18.75;16.77;;;;;;;27.06;60.26;101147.19;5035345;28;20054;-62
2023/08/19 06:58:55;;;;;;;17.42;15.70;;;;;;;27.01;60.60;101147.72;5043529;28;20100;-62
2023/08/19 07:01:25;;;;;;;16.90;15.20;;;;;;;26.98;60.62;101148.09;5046775;28;20475;-62
2023/08/19 07:03:53;;;;;;;13.55;12.30;;;;;;;27.08;60.15;101147.88;5037542;28;20046;-62
2023/08/19 07:06:22;;;;;;;13.75;12.45;;;;;;;27.15;60.20;101145.34;5045590;28;20056;-62
2023/08/19 07:08:50;;;;;;;12.93;11.70;;;;;;;27.24;59.81;101149.72;5033720;28;20046;-62
2023/08/19 07:11:18;;;;;;;13.45;12.15;;;;;;;27.29;59.64;101150.03;5033460;28;20057;-62
2023/08/19 07:13:46;;;;;;;13.88;12.27;;;;;;;27.31;59.70;101145.28;5033737;28;20057;-62
2023/08/19 07:16:17;;;;;;;15.68;14.23;;;;;;;27.29;59.85;101142.72;5036791;28;20056;-62
2023/08/19 07:18:48;;;;;;;16.83;15.20;;;;;;;27.26;60.35;101136.78;5037470;28;20053;-62
2023/08/19 07:21:18;;;;;;;17.77;16.00;;;;;;;27.25;60.28;101138.66;5037173;28;20042;-62
2023/08/19 07:23:47;;;;;;;15.65;14.20;;;;;;;27.28;60.22;101142.91;5037390;28;20499;-62
2023/08/19 07:26:14;;;;;;;13.45;11.70;;;;;;;27.37;59.68;101141.84;5036509;28;20407;-62
2023/08/19 07:28:42;;;;;;;14.07;12.57;;;;;;;27.41;59.80;101132.31;5037660;28;20431;-62
2023/08/19 07:31:10;;;;;;;12.15;10.95;;;;;;;27.46;59.29;101131.75;5051370;28;20045;-63
2023/08/19 07:33:38;;;;;;;12.05;10.98;;;;;;;27.51;59.42;101132.94;5041710;28;20056;-61
2023/08/19 07:36:06;;;;;;;15.05;13.15;;;;;;;27.52;59.37;101134.63;5044299;28;20049;-61
2023/08/19 07:38:33;;;;;;;12.73;11.52;;;;;;;27.58;59.61;101139.34;5036886;28;20057;-61
2023/08/19 07:41:00;;;;;;;13.20;11.90;;;;;;;27.63;59.10;101144.25;5051356;28;20483;-61
2023/08/19 07:43:28;;;;;;;13.55;12.10;;;;;;;27.66;59.30;101134.88;5041236;28;20402;-61
2023/08/19 07:45:55;;;;;;;15.65;14.10;;;;;;;27.61;59.30;101138.97;5047291;28;20407;-62
2023/08/19 07:48:23;;;;;;;15.82;14.20;;;;;;;27.59;59.39;101138.31;5036568;28;20041;-62
2023/08/19 07:50:50;;;;;;;15.70;14.00;;;;;;;27.60;59.55;101140.00;5046152;28;20049;-62
2023/08/19 07:53:18;;;;;;;14.88;13.38;;;;;;;27.60;59.58;101140.00;5050903;28;20050;-62
2023/08/19 07:55:47;;;;;;;14.95;13.55;;;;;;;27.61;59.39;101138.97;5044320;28;20052;-61
2023/08/19 07:58:15;;;;;;;14.52;13.13;;;;;;;27.65;59.74;101138.63;5036553;28;20045;-62
2023/08/19 08:00:42;;;;;;;14.77;13.38;;;;;;;27.64;59.68;101139.66;5051043;28;20041;-62
2023/08/19 08:03:10;;;;;;;17.17;14.52;;;;;;;27.60;59.29;101139.16;5040765;28;20045;-62
2023/08/19 08:05:37;;;;;;;17.33;13.65;;;;;;;27.59;59.23;101141.03;5046737;28;20057;-62
2023/08/19 08:08:05;;;;;;;14.57;13.07;;;;;;;27.62;59.28;101147.97;5044793;28;20452;-57
2023/08/19 08:10:33;;;;;;;13.40;11.95;;;;;;;27.65;59.07;101152.22;5043137;28;20041;-57
2023/08/19 08:13:00;;;;;;;13.07;11.88;;;;;;;27.68;58.36;101157.31;5050103;28;20045;-57
2023/08/19 08:15:29;;;;;;;13.73;11.98;;;;;;;27.70;58.27;101153.38;5044197;28;20049;-57
2023/08/19 08:17:56;;;;;;;15.82;12.15;;;;;;;27.73;58.58;101153.06;5043291;28;20068;-62
2023/08/19 08:20:27;;;;;;;14.30;12.52;;;;;;;27.73;58.59;101147.63;5050939;28;20055;-62
2023/08/19 08:22:54;;;;;;;11.60;10.60;;;;;;;27.76;58.41;101157.31;5040090;28;20046;-61
2023/08/19 08:25:22;;;;;;;12.48;11.23;;;;;;;27.79;58.82;101162.34;5044056;28;20506;-62
2023/08/19 08:27:50;;;;;;;12.40;11.38;;;;;;;27.81;58.53;101154.88;5051829;28;20049;-57
2023/08/19 08:30:17;;;;;;;12.40;11.20;;;;;;;27.81;58.69;101152.16;5039283;28;20353;-57
2023/08/19 08:32:45;;;;;;;13.15;11.90;;;;;;;27.81;58.53;101149.44;5042724;28;20546;-57
2023/08/19 08:35:12;;;;;;;13.85;12.48;;;;;;;27.82;58.74;101149.25;5043500;28;20056;-57
2023/08/19 08:37:40;;;;;;;12.85;11.63;;;;;;;27.83;58.50;101155.53;5042395;28;20045;-56
2023/08/19 08:40:08;;;;;;;12.23;11.18;;;;;;;27.85;58.67;101153.50;5035708;28;20045;-57
2023/08/19 08:42:35;;;;;;;12.43;11.20;;;;;;;27.84;58.69;101158.09;5035521;28;20045;-57
2023/08/19 08:45:03;;;;;;;13.10;11.85;;;;;;;27.85;58.33;101159.78;5035972;28;20053;-55
2023/08/19 08:47:32;;;;;;;12.48;11.27;;;;;;;27.90;58.32;101158.38;5035550;28;20052;-56
2023/08/19 08:50:00;;;;;;;12.43;11.15;;;;;;;27.93;58.37;101161.59;5035293;28;20045;-57
2023/08/19 08:52:28;;;;;;;11.90;10.80;;;;;;;27.96;57.92;101166.69;5047760;28;20365;-57
2023/08/19 08:54:59;;;;;;;11.93;10.82;;;;;;;27.97;58.25;101160.22;5037304;28;20049;-57
2023/08/19 08:57:26;;;;;;;12.45;11.27;;;;;;;28.01;58.27;101158.81;5035062;28;20054;-62
2023/08/19 08:59:54;;;;;;;12.68;11.43;;;;;;;28.02;58.22;101151.50;5034904;28;20050;-61
2023/08/19 09:02:23;;;;;;;11.48;10.48;;;;;;;28.03;57.80;101154.03;5034875;28;20049;-61
2023/08/19 09:04:50;;;;;;;12.18;11.07;;;;;;;28.05;58.09;101154.69;5043923;28;20055;-60
2023/08/19 09:07:37;;;;;;;12.70;11.52;;;;;;;28.06;57.68;101150.94;5040706;28;20384;-59
2023/08/19 09:10:13;;;;;;;13.23;11.43;;;;;;;28.08;57.87;101151.63;5041924;28;20052;-63
2023/08/19 09:12:50;;;;;;;11.57;10.63;;;;;;;28.09;57.51;101150.59;5044152;28;20041;-62
2023/08/19 09:15:18;;;;;;;11.07;10.18;;;;;;;28.13;57.68;101148.34;5039909;28;20049;-62
2023/08/19 09:17:46;;;;;;;12.23;11.02;;;;;;;28.14;57.83;101155.47;5050129;28;20046;-56
2023/08/19 09:20:18;;;;;;;11.65;10.40;;;;;;;28.16;57.54;101147.16;5042621;28;20052;-56
2023/08/19 09:22:46;;;;;;;12.40;11.15;;;;;;;28.19;57.73;101154.94;5045668;28;20041;-55
2023/08/19 09:25:14;;;;;;;11.38;10.38;;;;;;;28.20;57.31;101151.19;5038803;28;20445;-56
2023/08/19 09:27:44;;;;;;;12.20;11.10;;;;;;;28.21;57.56;101159.16;5038898;28;20056;-61
2023/08/19 09:30:16;;;;;;;11.65;10.65;;;;;;;28.20;57.63;101153.91;5045030;28;20380;-61
2023/08/19 09:32:45;;;;;;;;;;;;;;;28.21;57.74;101155.59;5034851;28;20048;-62
2023/08/19 09:35:13;;;;;;;12.27;11.18;;;;;;;28.23;57.49;101156.25;5035340;28;19921;-62
2023/08/19 09:37:41;;;;;;;13.25;11.77;;;;;;;28.23;57.48;101146.22;5048281;28;20045;-62
2023/08/19 09:40:11;;;;;;;12.13;11.02;;;;;;;28.23;57.22;101148.94;5042459;28;20045;-62
2023/08/19 09:42:40;;;;;;;12.65;11.45;;;;;;;28.24;57.15;101156.09;5040823;28;20041;-62
2023/08/19 09:45:15;;;;;;;12.65;11.45;;;;;;;28.24;56.86;101155.25;5049468;28;20041;-62
2023/08/19 09:47:48;;;;;;;11.20;10.30;;;;;;;28.26;56.92;101150.44;5041092;28;20052;-55
2023/08/19 09:50:18;;;;;;;11.85;10.75;;;;;;;28.26;56.91;101148.56;5043561;28;20487;-55
2023/08/19 09:52:56;;;;;;;11.63;10.52;;;;;;;28.27;56.85;101143.97;5042023;28;20045;-48
2023/08/19 09:55:28;;;;;;;15.15;11.55;;;;;;;28.29;56.54;101144.66;5039189;28;20052;-55
2023/08/19 09:57:56;;;;;;;12.93;11.63;;;;;;;28.29;56.96;101147.38;5044459;28;20056;-62
2023/08/19 10:00:23;;;;;;;12.73;11.32;;;;;;;28.30;56.49;101149.06;5047184;28;20048;-62
2023/08/19 10:02:51;;;;;;;13.02;11.68;;;;;;;28.31;56.46;101146.13;5037603;28;20045;-62
2023/08/19 10:05:19;;;;;;;12.07;10.98;;;;;;;28.30;56.91;101147.16;5047181;28;20045;-62
2023/08/19 10:07:55;;;;;;;12.48;11.43;;;;;;;28.31;56.24;101135.25;5043180;28;20053;-54
2023/08/19 10:10:28;;;;;;;11.98;10.77;;;;;;;28.31;56.07;101135.25;5038859;28;20407;-55
2023/08/19 10:12:57;;;;;;;13.18;12.05;;;;;;;28.32;56.24;101136.13;5034242;28;20052;-55
2023/08/19 10:15:26;;;;;;;12.95;11.75;;;;;;;28.33;55.80;101137.81;5034191;28;20045;-55
2023/08/19 10:17:57;;;;;;;12.85;11.65;;;;;;;28.33;56.30;101141.38;5034219;28;20057;-58
2023/08/19 10:20:29;;;;;;;12.77;11.48;;;;;;;28.35;56.33;101138.44;5033904;28;20041;-59
2023/08/19 10:22:59;;;;;;;12.43;11.32;;;;;;;28.37;55.94;101136.44;5033913;28;20041;-59
2023/08/19 10:25:27;;;;;;;11.80;10.68;;;;;;;28.38;56.36;101140.84;5041171;28;20376;-58
2023/08/19 10:28:10;;;;;;;12.48;11.25;;;;;;;28.39;56.28;101138.97;5048983;28;20053;-57
2023/08/19 10:30:37;;;;;;;11.32;10.32;;;;;;;28.38;55.99;101135.41;5034419;28;20685;-58
2023/08/19 10:33:32;;;;;;;11.95;10.80;;;;;;;28.40;55.97;101137.91;5038956;28;20392;-60
2023/08/19 10:36:13;;;;;;;12.38;11.15;;;;;;;28.41;55.94;101129.59;5033345;28;20061;-58
2023/08/19 10:38:47;;;;;;;11.75;10.65;;;;;;;28.41;55.90;101129.59;5038254;28;20055;-60
2023/08/19 10:41:33;;;;;;;11.07;10.00;;;;;;;28.41;55.96;101135.03;5042957;28;20049;-60
2023/08/19 10:44:12;;;;;;;11.98;10.77;;;;;;;28.42;56.01;101136.72;5049191;28;20053;-59
2023/08/19 10:46:47;;;;;;;11.93;10.82;;;;;;;28.44;56.48;101134.66;5039096;28;20053;-59
2023/08/19 10:49:19;;;;;;;10.95;9.95;;;;;;;28.43;56.33;101135.69;5035092;28;20042;-60
2023/08/19 10:52:05;;;;;;;12.07;10.88;;;;;;;28.44;56.37;101136.53;5039435;28;20496;-63
2023/08/19 10:54:40;;;;;;;11.77;10.68;;;;;;;28.44;56.42;101133.81;5043421;28;20053;-61
2023/08/19 10:57:12;;;;;;;13.88;12.38;;;;;;;28.44;56.57;101133.81;5039665;28;20399;-56
2023/08/19 10:59:41;;;;;;;11.60;10.63;;;;;;;28.47;56.47;101123.38;5051981;28;20403;-61
2023/08/19 11:02:10;;;;;;;12.85;11.55;;;;;;;28.48;55.97;101125.09;5040419;28;20049;-60
2023/08/19 11:04:42;;;;;;;12.52;11.48;;;;;;;28.50;56.13;101125.75;5048431;28;20072;-59
2023/08/19 11:07:10;;;;;;;12.20;10.98;;;;;;;28.50;55.89;101122.19;5037000;28;20117;-57
2023/08/19 11:09:43;;;;;;;11.30;10.13;;;;;;;28.51;56.05;101129.31;5051819;28;20040;-55
2023/08/19 11:12:14;;;;;;;11.77;10.68;;;;;;;28.50;55.65;101136.63;5042336;28;20431;-55
2023/08/19 11:14:46;;;;;;;11.82;10.68;;;;;;;28.51;55.85;101132.88;5048866;28;20049;-55
2023/08/19 11:17:14;;;;;;;11.52;10.50;;;;;;;28.52;55.46;101125.53;5042482;28;20052;-61
2023/08/19 11:19:43;;;;;;;12.05;10.77;;;;;;;28.55;55.71;101123.31;5051745;28;20051;-56
2023/08/19 11:22:16;;;;;;;12.30;11.10;;;;;;;28.55;55.38;101127.91;5043463;28;20037;-53